sensor_id;sensor_type;location;lat;lon;timestamp;temperature;humidity
18173;DHT22;9211;48.818;9.312;2022-11-02T00:02:26;8.90;99.90
18173;DHT22;9211;48.818;9.312;2022-11-02T00:04:53;8.90;99.90
18173;DHT22;9211;48.818;9.312;2022-11-02T00:07:20;8.90;99.90
18173;DHT22;9211;48.818;9.312;2022-11-02T00:09:47;8.90;99.90
18173;DHT22;9211;48.818;9.312;2022-11-02T00:12:14;8.90;99.90
18173;DHT22;9211;48.818;9.312;2022-11-02T00:14:41;8.90;99.90
18173;DHT22;9211;48.818;9.312;2022-11-02T00:17:09;8.90;99.90
18173;DHT22;9211;48.818;9.312;2022-11-02T00:19:36;8.90;99.90
18173;DHT22;9211;48.818;9.312;2022-11-02T00:22:03;8.90;99.90
18173;DHT22;9211;48.818;9.312;2022-11-02T00:24:31;8.80;99.90
18173;DHT22;9211;48.818;9.312;2022-11-02T00:26:59;8.80;99.90
18173;DHT22;9211;48.818;9.312;2022-11-02T00:29:26;8.70;99.90
18173;DHT22;9211;48.818;9.312;2022-11-02T00:31:54;8.70;99.90
18173;DHT22;9211;48.818;9.312;2022-11-02T00:34:22;8.70;99.90
18173;DHT22;9211;48.818;9.312;2022-11-02T00:36:49;8.70;99.90
18173;DHT22;9211;48.818;9.312;2022-11-02T00:39:16;8.70;99.90
18173;DHT22;9211;48.818;9.312;2022-11-02T00:41:43;8.70;99.90
18173;DHT22;9211;48.818;9.312;2022-11-02T00:44:10;8.70;99.90
18173;DHT22;9211;48.818;9.312;2022-11-02T00:46:37;8.70;99.90
18173;DHT22;9211;48.818;9.312;2022-11-02T00:49:05;8.60;99.90
18173;DHT22;9211;48.818;9.312;2022-11-02T00:51:35;8.70;99.90
18173;DHT22;9211;48.818;9.312;2022-11-02T00:54:02;8.60;99.90
18173;DHT22;9211;48.818;9.312;2022-11-02T00:56:30;8.60;99.90
18173;DHT22;9211;48.818;9.312;2022-11-02T00:58:57;8.50;99.90
18173;DHT22;9211;48.818;9.312;2022-11-02T01:01:24;8.50;99.90
18173;DHT22;9211;48.818;9.312;2022-11-02T01:03:51;8.40;99.90
18173;DHT22;9211;48.818;9.312;2022-11-02T01:06:18;8.30;99.90
18173;DHT22;9211;48.818;9.312;2022-11-02T01:08:47;8.40;99.90
18173;DHT22;9211;48.818;9.312;2022-11-02T01:11:16;8.40;99.90
18173;DHT22;9211;48.818;9.312;2022-11-02T01:13:43;8.40;99.90
18173;DHT22;9211;48.818;9.312;2022-11-02T01:16:11;8.40;99.90
18173;DHT22;9211;48.818;9.312;2022-11-02T01:18:39;8.30;99.90
18173;DHT22;9211;48.818;9.312;2022-11-02T01:21:06;8.30;99.90
18173;DHT22;9211;48.818;9.312;2022-11-02T01:23:35;8.40;99.90
18173;DHT22;9211;48.818;9.312;2022-11-02T01:26:04;8.30;99.90
18173;DHT22;9211;48.818;9.312;2022-11-02T01:28:31;8.30;99.90
18173;DHT22;9211;48.818;9.312;2022-11-02T01:30:59;8.40;99.90
18173;DHT22;9211;48.818;9.312;2022-11-02T01:33:27;8.40;99.90
18173;DHT22;9211;48.818;9.312;2022-11-02T01:35:54;8.50;99.90
18173;DHT22;9211;48.818;9.312;2022-11-02T01:38:22;8.50;99.90
18173;DHT22;9211;48.818;9.312;2022-11-02T01:40:49;8.60;99.90
18173;DHT22;9211;48.818;9.312;2022-11-02T01:43:23;8.50;99.90
18173;DHT22;9211;48.818;9.312;2022-11-02T01:45:52;8.50;99.90
18173;DHT22;9211;48.818;9.312;2022-11-02T01:48:26;8.50;99.90
18173;DHT22;9211;48.818;9.312;2022-11-02T01:50:54;8.50;99.90
18173;DHT22;9211;48.818;9.312;2022-11-02T01:53:22;8.50;99.90
18173;DHT22;9211;48.818;9.312;2022-11-02T01:55:50;8.50;99.90
18173;DHT22;9211;48.818;9.312;2022-11-02T01:58:17;8.50;99.90
18173;DHT22;9211;48.818;9.312;2022-11-02T02:00:45;8.50;99.90
18173;DHT22;9211;48.818;9.312;2022-11-02T02:03:14;8.50;99.90
18173;DHT22;9211;48.818;9.312;2022-11-02T02:05:48;8.50;99.90
18173;DHT22;9211;48.818;9.312;2022-11-02T02:08:19;8.60;99.90
18173;DHT22;9211;48.818;9.312;2022-11-02T02:10:48;8.60;99.90
18173;DHT22;9211;48.818;9.312;2022-11-02T02:13:15;8.60;99.90
18173;DHT22;9211;48.818;9.312;2022-11-02T02:15:52;8.60;99.90
18173;DHT22;9211;48.818;9.312;2022-11-02T02:18:28;8.60;99.90
18173;DHT22;9211;48.818;9.312;2022-11-02T02:21:11;8.60;99.90
18173;DHT22;9211;48.818;9.312;2022-11-02T02:23:58;8.70;99.90
18173;DHT22;9211;48.818;9.312;2022-11-02T02:26:43;8.60;99.90
18173;DHT22;9211;48.818;9.312;2022-11-02T02:29:19;8.60;99.90
18173;DHT22;9211;48.818;9.312;2022-11-02T02:31:51;8.50;99.90
18173;DHT22;9211;48.818;9.312;2022-11-02T02:34:23;8.60;99.90
18173;DHT22;9211;48.818;9.312;2022-11-02T02:36:56;8.70;99.90
18173;DHT22;9211;48.818;9.312;2022-11-02T02:39:28;8.60;99.90
18173;DHT22;9211;48.818;9.312;2022-11-02T02:41:59;8.70;99.90
18173;DHT22;9211;48.818;9.312;2022-11-02T02:44:35;8.60;99.90
18173;DHT22;9211;48.818;9.312;2022-11-02T02:47:08;8.60;99.90
18173;DHT22;9211;48.818;9.312;2022-11-02T02:49:39;8.60;99.90
18173;DHT22;9211;48.818;9.312;2022-11-02T02:52:08;8.50;99.90
18173;DHT22;9211;48.818;9.312;2022-11-02T02:54:38;8.50;99.90
18173;DHT22;9211;48.818;9.312;2022-11-02T02:57:08;8.50;99.90
18173;DHT22;9211;48.818;9.312;2022-11-02T02:59:39;8.40;99.90
18173;DHT22;9211;48.818;9.312;2022-11-02T03:02:12;8.40;99.90
18173;DHT22;9211;48.818;9.312;2022-11-02T03:04:41;8.40;99.90
18173;DHT22;9211;48.818;9.312;2022-11-02T03:07:11;8.40;99.90
18173;DHT22;9211;48.818;9.312;2022-11-02T03:09:41;8.50;99.90
18173;DHT22;9211;48.818;9.312;2022-11-02T03:12:19;8.50;99.90
18173;DHT22;9211;48.818;9.312;2022-11-02T03:14:59;8.50;99.90
18173;DHT22;9211;48.818;9.312;2022-11-02T03:17:32;8.50;99.90
18173;DHT22;9211;48.818;9.312;2022-11-02T03:20:10;8.50;99.90
18173;DHT22;9211;48.818;9.312;2022-11-02T03:22:48;8.50;99.90
18173;DHT22;9211;48.818;9.312;2022-11-02T03:25:22;8.60;99.90
18173;DHT22;9211;48.818;9.312;2022-11-02T03:27:55;8.60;99.90
18173;DHT22;9211;48.818;9.312;2022-11-02T03:30:26;8.70;99.90
18173;DHT22;9211;48.818;9.312;2022-11-02T03:33:01;8.70;99.90
18173;DHT22;9211;48.818;9.312;2022-11-02T03:35:32;8.70;99.90
18173;DHT22;9211;48.818;9.312;2022-11-02T03:38:04;8.70;99.90
18173;DHT22;9211;48.818;9.312;2022-11-02T03:40:38;8.70;99.90
18173;DHT22;9211;48.818;9.312;2022-11-02T03:43:08;8.70;99.90
18173;DHT22;9211;48.818;9.312;2022-11-02T03:45:39;8.70;99.90
18173;DHT22;9211;48.818;9.312;2022-11-02T03:48:11;8.60;99.90
18173;DHT22;9211;48.818;9.312;2022-11-02T03:50:42;8.60;99.90
18173;DHT22;9211;48.818;9.312;2022-11-02T03:53:13;8.60;99.90
18173;DHT22;9211;48.818;9.312;2022-11-02T03:55:48;8.60;99.90
18173;DHT22;9211;48.818;9.312;2022-11-02T03:58:16;8.60;99.90
18173;DHT22;9211;48.818;9.312;2022-11-02T04:00:48;8.60;99.90
18173;DHT22;9211;48.818;9.312;2022-11-02T04:03:18;8.60;99.90
18173;DHT22;9211;48.818;9.312;2022-11-02T04:05:46;8.60;99.90
18173;DHT22;9211;48.818;9.312;2022-11-02T04:08:27;8.60;99.90
18173;DHT22;9211;48.818;9.312;2022-11-02T04:10:59;8.60;99.90
18173;DHT22;9211;48.818;9.312;2022-11-02T04:13:45;8.80;99.90
18173;DHT22;9211;48.818;9.312;2022-11-02T04:16:35;8.70;99.90
18173;DHT22;9211;48.818;9.312;2022-11-02T04:19:08;8.60;99.90
18173;DHT22;9211;48.818;9.312;2022-11-02T04:21:53;8.70;99.90
18173;DHT22;9211;48.818;9.312;2022-11-02T04:24:40;8.60;99.90
18173;DHT22;9211;48.818;9.312;2022-11-02T04:27:42;8.60;99.90
18173;DHT22;9211;48.818;9.312;2022-11-02T04:30:11;8.60;99.90
18173;DHT22;9211;48.818;9.312;2022-11-02T04:32:41;8.60;99.90
18173;DHT22;9211;48.818;9.312;2022-11-02T04:35:29;8.60;99.90
18173;DHT22;9211;48.818;9.312;2022-11-02T04:37:58;8.60;99.90
18173;DHT22;9211;48.818;9.312;2022-11-02T04:40:43;8.50;99.90
18173;DHT22;9211;48.818;9.312;2022-11-02T04:43:11;8.50;99.90
18173;DHT22;9211;48.818;9.312;2022-11-02T04:45:38;8.50;99.90
18173;DHT22;9211;48.818;9.312;2022-11-02T04:48:08;8.50;99.90
18173;DHT22;9211;48.818;9.312;2022-11-02T04:50:36;8.50;99.90
18173;DHT22;9211;48.818;9.312;2022-11-02T04:53:04;8.40;99.90
18173;DHT22;9211;48.818;9.312;2022-11-02T04:55:33;8.40;99.90
18173;DHT22;9211;48.818;9.312;2022-11-02T04:58:00;8.40;99.90
18173;DHT22;9211;48.818;9.312;2022-11-02T05:00:27;8.40;99.90
18173;DHT22;9211;48.818;9.312;2022-11-02T05:02:55;8.40;99.90
18173;DHT22;9211;48.818;9.312;2022-11-02T05:05:25;8.30;99.90
18173;DHT22;9211;48.818;9.312;2022-11-02T05:07:56;8.40;99.90
18173;DHT22;9211;48.818;9.312;2022-11-02T05:10:24;8.40;99.90
18173;DHT22;9211;48.818;9.312;2022-11-02T05:12:55;8.40;99.90
18173;DHT22;9211;48.818;9.312;2022-11-02T05:15:23;8.20;99.90
18173;DHT22;9211;48.818;9.312;2022-11-02T05:17:51;8.30;99.90
18173;DHT22;9211;48.818;9.312;2022-11-02T05:20:18;8.30;99.90
18173;DHT22;9211;48.818;9.312;2022-11-02T05:22:46;8.30;99.90
18173;DHT22;9211;48.818;9.312;2022-11-02T05:25:16;8.30;99.90
18173;DHT22;9211;48.818;9.312;2022-11-02T05:27:43;8.20;99.90
18173;DHT22;9211;48.818;9.312;2022-11-02T05:30:11;8.40;99.90
18173;DHT22;9211;48.818;9.312;2022-11-02T05:32:39;8.30;99.90
18173;DHT22;9211;48.818;9.312;2022-11-02T05:35:07;8.40;99.90
18173;DHT22;9211;48.818;9.312;2022-11-02T05:37:35;8.40;99.90
18173;DHT22;9211;48.818;9.312;2022-11-02T05:40:05;8.40;99.90
18173;DHT22;9211;48.818;9.312;2022-11-02T05:42:33;8.40;99.90
18173;DHT22;9211;48.818;9.312;2022-11-02T05:45:00;8.50;99.90
18173;DHT22;9211;48.818;9.312;2022-11-02T05:47:27;8.50;99.90
18173;DHT22;9211;48.818;9.312;2022-11-02T05:49:54;8.50;99.90
18173;DHT22;9211;48.818;9.312;2022-11-02T05:52:21;8.70;99.90
18173;DHT22;9211;48.818;9.312;2022-11-02T05:54:48;8.70;99.90
18173;DHT22;9211;48.818;9.312;2022-11-02T05:57:16;8.80;99.90
18173;DHT22;9211;48.818;9.312;2022-11-02T05:59:43;8.90;99.90
18173;DHT22;9211;48.818;9.312;2022-11-02T06:02:10;9.00;99.90
18173;DHT22;9211;48.818;9.312;2022-11-02T06:04:37;9.10;99.90
18173;DHT22;9211;48.818;9.312;2022-11-02T06:07:04;9.20;99.90
18173;DHT22;9211;48.818;9.312;2022-11-02T06:09:31;9.20;99.90
18173;DHT22;9211;48.818;9.312;2022-11-02T06:11:58;9.40;99.90
18173;DHT22;9211;48.818;9.312;2022-11-02T06:14:26;9.40;99.90
18173;DHT22;9211;48.818;9.312;2022-11-02T06:16:53;9.60;99.90
18173;DHT22;9211;48.818;9.312;2022-11-02T06:19:20;9.60;99.90
18173;DHT22;9211;48.818;9.312;2022-11-02T06:21:47;9.70;99.90
18173;DHT22;9211;48.818;9.312;2022-11-02T06:24:14;9.80;99.90
18173;DHT22;9211;48.818;9.312;2022-11-02T06:26:41;9.80;99.90
18173;DHT22;9211;48.818;9.312;2022-11-02T06:29:08;9.90;99.90
18173;DHT22;9211;48.818;9.312;2022-11-02T06:31:36;10.00;99.90
18173;DHT22;9211;48.818;9.312;2022-11-02T06:34:04;10.10;99.90
18173;DHT22;9211;48.818;9.312;2022-11-02T06:36:31;10.20;99.90
18173;DHT22;9211;48.818;9.312;2022-11-02T06:38:58;10.30;99.90
18173;DHT22;9211;48.818;9.312;2022-11-02T06:41:25;10.30;99.90
18173;DHT22;9211;48.818;9.312;2022-11-02T06:43:51;10.30;99.90
18173;DHT22;9211;48.818;9.312;2022-11-02T06:46:18;10.50;99.90
18173;DHT22;9211;48.818;9.312;2022-11-02T06:48:47;10.40;99.90
18173;DHT22;9211;48.818;9.312;2022-11-02T06:51:14;10.60;99.90
18173;DHT22;9211;48.818;9.312;2022-11-02T06:53:41;10.60;99.90
18173;DHT22;9211;48.818;9.312;2022-11-02T06:56:08;10.70;99.90
18173;DHT22;9211;48.818;9.312;2022-11-02T06:58:37;10.80;99.90
18173;DHT22;9211;48.818;9.312;2022-11-02T07:01:06;10.80;99.90
18173;DHT22;9211;48.818;9.312;2022-11-02T07:03:33;10.90;99.90
18173;DHT22;9211;48.818;9.312;2022-11-02T07:06:02;10.90;99.90
18173;DHT22;9211;48.818;9.312;2022-11-02T07:08:29;11.00;99.90
18173;DHT22;9211;48.818;9.312;2022-11-02T07:10:56;11.10;99.90
18173;DHT22;9211;48.818;9.312;2022-11-02T07:13:23;11.10;99.90
18173;DHT22;9211;48.818;9.312;2022-11-02T07:15:51;11.30;99.90
18173;DHT22;9211;48.818;9.312;2022-11-02T07:18:19;11.20;99.90
18173;DHT22;9211;48.818;9.312;2022-11-02T07:20:46;11.30;99.90
18173;DHT22;9211;48.818;9.312;2022-11-02T07:23:14;11.40;99.90
18173;DHT22;9211;48.818;9.312;2022-11-02T07:25:41;11.50;99.90
18173;DHT22;9211;48.818;9.312;2022-11-02T07:28:08;11.50;99.90
18173;DHT22;9211;48.818;9.312;2022-11-02T07:30:35;11.50;99.90
18173;DHT22;9211;48.818;9.312;2022-11-02T07:33:02;11.50;99.90
18173;DHT22;9211;48.818;9.312;2022-11-02T07:35:30;11.60;99.90
18173;DHT22;9211;48.818;9.312;2022-11-02T07:38:00;11.60;99.90
18173;DHT22;9211;48.818;9.312;2022-11-02T07:40:30;11.70;99.90
18173;DHT22;9211;48.818;9.312;2022-11-02T07:42:57;11.70;99.90
18173;DHT22;9211;48.818;9.312;2022-11-02T07:46:01;11.80;99.90
18173;DHT22;9211;48.818;9.312;2022-11-02T07:48:28;11.70;99.90
18173;DHT22;9211;48.818;9.312;2022-11-02T07:50:56;11.80;99.90
18173;DHT22;9211;48.818;9.312;2022-11-02T07:53:23;11.80;99.90
18173;DHT22;9211;48.818;9.312;2022-11-02T07:55:51;11.90;99.90
18173;DHT22;9211;48.818;9.312;2022-11-02T07:58:18;11.90;99.90
18173;DHT22;9211;48.818;9.312;2022-11-02T08:00:45;12.00;99.90
18173;DHT22;9211;48.818;9.312;2022-11-02T08:03:12;12.00;99.90
18173;DHT22;9211;48.818;9.312;2022-11-02T08:05:41;12.00;99.90
18173;DHT22;9211;48.818;9.312;2022-11-02T08:08:10;12.10;99.90
18173;DHT22;9211;48.818;9.312;2022-11-02T08:10:38;12.10;99.90
18173;DHT22;9211;48.818;9.312;2022-11-02T08:13:07;12.20;99.90
18173;DHT22;9211;48.818;9.312;2022-11-02T08:15:34;12.30;99.90
18173;DHT22;9211;48.818;9.312;2022-11-02T08:18:02;12.30;99.90
18173;DHT22;9211;48.818;9.312;2022-11-02T08:20:30;12.40;99.90
18173;DHT22;9211;48.818;9.312;2022-11-02T08:22:57;12.50;99.90
18173;DHT22;9211;48.818;9.312;2022-11-02T08:25:24;12.50;99.90
18173;DHT22;9211;48.818;9.312;2022-11-02T08:27:54;12.50;99.90
18173;DHT22;9211;48.818;9.312;2022-11-02T08:30:22;12.60;99.90
18173;DHT22;9211;48.818;9.312;2022-11-02T08:32:49;12.60;99.90
18173;DHT22;9211;48.818;9.312;2022-11-02T08:35:16;12.70;99.90
18173;DHT22;9211;48.818;9.312;2022-11-02T08:37:43;12.70;99.90
18173;DHT22;9211;48.818;9.312;2022-11-02T08:40:11;12.70;99.90
18173;DHT22;9211;48.818;9.312;2022-11-02T08:42:38;12.80;99.90
18173;DHT22;9211;48.818;9.312;2022-11-02T08:45:06;12.80;99.90
18173;DHT22;9211;48.818;9.312;2022-11-02T08:47:39;12.80;99.90
18173;DHT22;9211;48.818;9.312;2022-11-02T08:50:07;12.90;99.90
18173;DHT22;9211;48.818;9.312;2022-11-02T08:52:34;12.90;99.90
18173;DHT22;9211;48.818;9.312;2022-11-02T08:55:01;12.90;99.90
18173;DHT22;9211;48.818;9.312;2022-11-02T08:57:28;13.00;99.90
18173;DHT22;9211;48.818;9.312;2022-11-02T08:59:55;13.10;99.90
18173;DHT22;9211;48.818;9.312;2022-11-02T09:02:22;13.10;99.90
18173;DHT22;9211;48.818;9.312;2022-11-02T09:04:51;13.10;99.90
18173;DHT22;9211;48.818;9.312;2022-11-02T09:07:17;13.20;99.90
18173;DHT22;9211;48.818;9.312;2022-11-02T09:09:44;13.30;99.90
18173;DHT22;9211;48.818;9.312;2022-11-02T09:12:11;13.30;99.90
18173;DHT22;9211;48.818;9.312;2022-11-02T09:14:38;13.30;99.90
18173;DHT22;9211;48.818;9.312;2022-11-02T09:17:05;13.40;99.90
18173;DHT22;9211;48.818;9.312;2022-11-02T09:19:32;13.40;99.90
18173;DHT22;9211;48.818;9.312;2022-11-02T09:22:00;13.50;99.90
18173;DHT22;9211;48.818;9.312;2022-11-02T09:24:27;13.50;99.90
18173;DHT22;9211;48.818;9.312;2022-11-02T09:26:54;13.60;99.90
18173;DHT22;9211;48.818;9.312;2022-11-02T09:29:21;13.60;99.90
18173;DHT22;9211;48.818;9.312;2022-11-02T09:31:48;13.60;99.90
18173;DHT22;9211;48.818;9.312;2022-11-02T09:34:15;13.60;99.90
18173;DHT22;9211;48.818;9.312;2022-11-02T09:36:42;13.70;99.90
18173;DHT22;9211;48.818;9.312;2022-11-02T09:39:10;13.70;99.90
18173;DHT22;9211;48.818;9.312;2022-11-02T09:41:41;13.80;99.90
18173;DHT22;9211;48.818;9.312;2022-11-02T09:44:13;13.80;99.90
18173;DHT22;9211;48.818;9.312;2022-11-02T09:46:44;13.90;99.90
18173;DHT22;9211;48.818;9.312;2022-11-02T09:49:15;13.90;99.90
18173;DHT22;9211;48.818;9.312;2022-11-02T09:51:44;14.00;99.90
18173;DHT22;9211;48.818;9.312;2022-11-02T09:54:17;14.00;99.90
18173;DHT22;9211;48.818;9.312;2022-11-02T09:56:46;14.00;99.90
18173;DHT22;9211;48.818;9.312;2022-11-02T09:59:15;14.10;99.90
18173;DHT22;9211;48.818;9.312;2022-11-02T10:01:52;14.10;99.90
18173;DHT22;9211;48.818;9.312;2022-11-02T10:04:56;14.10;99.90
18173;DHT22;9211;48.818;9.312;2022-11-02T10:07:43;14.10;99.90
18173;DHT22;9211;48.818;9.312;2022-11-02T10:10:16;14.10;99.90
18173;DHT22;9211;48.818;9.312;2022-11-02T10:12:52;14.10;99.90
18173;DHT22;9211;48.818;9.312;2022-11-02T10:15:29;14.20;99.90
18173;DHT22;9211;48.818;9.312;2022-11-02T10:18:01;14.20;99.90
18173;DHT22;9211;48.818;9.312;2022-11-02T10:20:32;14.20;99.90
18173;DHT22;9211;48.818;9.312;2022-11-02T10:23:06;14.20;99.90
18173;DHT22;9211;48.818;9.312;2022-11-02T10:25:36;14.10;99.90
18173;DHT22;9211;48.818;9.312;2022-11-02T10:28:10;14.20;99.90
18173;DHT22;9211;48.818;9.312;2022-11-02T10:30:40;14.20;99.90
18173;DHT22;9211;48.818;9.312;2022-11-02T10:33:12;14.20;99.90
18173;DHT22;9211;48.818;9.312;2022-11-02T10:35:45;14.20;99.90
18173;DHT22;9211;48.818;9.312;2022-11-02T10:38:21;14.20;99.90
18173;DHT22;9211;48.818;9.312;2022-11-02T10:41:11;14.20;99.90
18173;DHT22;9211;48.818;9.312;2022-11-02T10:44:02;14.30;99.90
18173;DHT22;9211;48.818;9.312;2022-11-02T10:46:40;14.30;99.90
18173;DHT22;9211;48.818;9.312;2022-11-02T10:49:17;14.30;99.90
18173;DHT22;9211;48.818;9.312;2022-11-02T10:51:46;14.30;99.90
18173;DHT22;9211;48.818;9.312;2022-11-02T10:54:14;14.30;99.90
18173;DHT22;9211;48.818;9.312;2022-11-02T10:56:43;14.30;99.90
18173;DHT22;9211;48.818;9.312;2022-11-02T10:59:13;14.30;99.90
18173;DHT22;9211;48.818;9.312;2022-11-02T11:01:45;14.30;99.90
18173;DHT22;9211;48.818;9.312;2022-11-02T11:04:20;14.30;99.90
18173;DHT22;9211;48.818;9.312;2022-11-02T11:06:47;14.30;99.90
18173;DHT22;9211;48.818;9.312;2022-11-02T11:09:16;14.30;99.90
18173;DHT22;9211;48.818;9.312;2022-11-02T11:11:53;14.30;99.90
18173;DHT22;9211;48.818;9.312;2022-11-02T11:14:25;14.30;99.90
18173;DHT22;9211;48.818;9.312;2022-11-02T11:16:54;14.20;99.90
18173;DHT22;9211;48.818;9.312;2022-11-02T11:19:33;14.20;99.90
18173;DHT22;9211;48.818;9.312;2022-11-02T11:22:01;14.20;99.90
18173;DHT22;9211;48.818;9.312;2022-11-02T11:24:29;14.20;99.90
18173;DHT22;9211;48.818;9.312;2022-11-02T11:27:03;14.10;99.90
18173;DHT22;9211;48.818;9.312;2022-11-02T11:29:31;14.10;99.90
18173;DHT22;9211;48.818;9.312;2022-11-02T11:31:59;14.10;99.90
18173;DHT22;9211;48.818;9.312;2022-11-02T11:34:28;14.10;99.90
18173;DHT22;9211;48.818;9.312;2022-11-02T11:37:04;14.00;99.90
18173;DHT22;9211;48.818;9.312;2022-11-02T11:39:32;14.00;99.90
18173;DHT22;9211;48.818;9.312;2022-11-02T11:42:02;14.00;99.90
18173;DHT22;9211;48.818;9.312;2022-11-02T11:44:30;14.00;99.90
18173;DHT22;9211;48.818;9.312;2022-11-02T11:46:58;14.10;99.90
18173;DHT22;9211;48.818;9.312;2022-11-02T11:49:28;14.10;99.90
18173;DHT22;9211;48.818;9.312;2022-11-02T11:51:57;14.10;99.90
18173;DHT22;9211;48.818;9.312;2022-11-02T11:54:26;14.10;99.90
18173;DHT22;9211;48.818;9.312;2022-11-02T11:56:55;14.10;99.90
18173;DHT22;9211;48.818;9.312;2022-11-02T11:59:29;14.20;99.90
18173;DHT22;9211;48.818;9.312;2022-11-02T12:01:58;14.20;99.90
18173;DHT22;9211;48.818;9.312;2022-11-02T12:04:31;14.30;99.90
18173;DHT22;9211;48.818;9.312;2022-11-02T12:07:18;14.20;99.90
18173;DHT22;9211;48.818;9.312;2022-11-02T12:09:57;14.30;99.90
18173;DHT22;9211;48.818;9.312;2022-11-02T12:12:35;14.40;99.90
18173;DHT22;9211;48.818;9.312;2022-11-02T12:15:16;14.50;99.90
18173;DHT22;9211;48.818;9.312;2022-11-02T12:17:54;14.60;99.90
18173;DHT22;9211;48.818;9.312;2022-11-02T12:20:47;14.70;99.90
18173;DHT22;9211;48.818;9.312;2022-11-02T12:23:27;14.80;99.90
18173;DHT22;9211;48.818;9.312;2022-11-02T12:26:11;14.90;99.90
18173;DHT22;9211;48.818;9.312;2022-11-02T12:28:46;15.10;99.90
18173;DHT22;9211;48.818;9.312;2022-11-02T12:31:26;15.10;99.90
18173;DHT22;9211;48.818;9.312;2022-11-02T12:34:26;15.20;99.90
18173;DHT22;9211;48.818;9.312;2022-11-02T12:37:06;15.20;99.90
18173;DHT22;9211;48.818;9.312;2022-11-02T12:39:50;15.30;99.90
18173;DHT22;9211;48.818;9.312;2022-11-02T12:42:25;15.30;99.90
18173;DHT22;9211;48.818;9.312;2022-11-02T12:45:06;15.20;99.90
18173;DHT22;9211;48.818;9.312;2022-11-02T12:47:50;15.20;99.90
18173;DHT22;9211;48.818;9.312;2022-11-02T12:50:28;15.10;99.90
18173;DHT22;9211;48.818;9.312;2022-11-02T12:53:11;15.10;99.90
18173;DHT22;9211;48.818;9.312;2022-11-02T12:55:45;15.00;99.90
18173;DHT22;9211;48.818;9.312;2022-11-02T12:58:18;14.90;99.90
18173;DHT22;9211;48.818;9.312;2022-11-02T13:00:50;14.90;99.90
18173;DHT22;9211;48.818;9.312;2022-11-02T13:03:28;14.90;99.90
18173;DHT22;9211;48.818;9.312;2022-11-02T13:06:00;14.90;99.90
18173;DHT22;9211;48.818;9.312;2022-11-02T13:08:35;14.90;99.90
18173;DHT22;9211;48.818;9.312;2022-11-02T13:11:07;14.90;99.90
18173;DHT22;9211;48.818;9.312;2022-11-02T13:13:40;14.90;99.90
18173;DHT22;9211;48.818;9.312;2022-11-02T13:16:08;14.90;99.90
18173;DHT22;9211;48.818;9.312;2022-11-02T13:18:41;14.90;99.90
18173;DHT22;9211;48.818;9.312;2022-11-02T13:21:11;14.90;99.90
18173;DHT22;9211;48.818;9.312;2022-11-02T13:23:42;15.00;99.90
18173;DHT22;9211;48.818;9.312;2022-11-02T13:26:14;15.00;99.90
18173;DHT22;9211;48.818;9.312;2022-11-02T13:28:48;15.00;99.90
18173;DHT22;9211;48.818;9.312;2022-11-02T13:31:23;15.10;99.90
18173;DHT22;9211;48.818;9.312;2022-11-02T13:33:55;15.20;99.90
18173;DHT22;9211;48.818;9.312;2022-11-02T13:36:25;15.30;99.90
18173;DHT22;9211;48.818;9.312;2022-11-02T13:38:56;15.30;99.90
18173;DHT22;9211;48.818;9.312;2022-11-02T13:42:06;15.30;99.90
18173;DHT22;9211;48.818;9.312;2022-11-02T13:45:02;15.40;99.90
18173;DHT22;9211;48.818;9.312;2022-11-02T13:48:00;15.50;99.90
18173;DHT22;9211;48.818;9.312;2022-11-02T13:50:38;15.50;99.90
18173;DHT22;9211;48.818;9.312;2022-11-02T13:53:11;15.60;99.90
18173;DHT22;9211;48.818;9.312;2022-11-02T13:55:44;15.60;99.90
18173;DHT22;9211;48.818;9.312;2022-11-02T13:58:21;15.70;99.90
18173;DHT22;9211;48.818;9.312;2022-11-02T14:00:49;15.70;99.90
18173;DHT22;9211;48.818;9.312;2022-11-02T14:03:20;15.70;99.90
18173;DHT22;9211;48.818;9.312;2022-11-02T14:05:51;15.70;99.90
18173;DHT22;9211;48.818;9.312;2022-11-02T14:08:23;15.70;99.90
18173;DHT22;9211;48.818;9.312;2022-11-02T14:11:23;15.60;99.90
18173;DHT22;9211;48.818;9.312;2022-11-02T14:14:21;15.60;99.90
18173;DHT22;9211;48.818;9.312;2022-11-02T14:17:11;15.60;99.90
18173;DHT22;9211;48.818;9.312;2022-11-02T14:19:54;15.50;99.90
18173;DHT22;9211;48.818;9.312;2022-11-02T14:22:26;15.40;99.90
18173;DHT22;9211;48.818;9.312;2022-11-02T14:25:26;15.40;99.90
18173;DHT22;9211;48.818;9.312;2022-11-02T14:28:31;15.30;99.90
18173;DHT22;9211;48.818;9.312;2022-11-02T14:31:25;15.30;99.90
18173;DHT22;9211;48.818;9.312;2022-11-02T14:34:08;15.30;99.90
18173;DHT22;9211;48.818;9.312;2022-11-02T14:36:50;15.30;99.90
18173;DHT22;9211;48.818;9.312;2022-11-02T14:39:28;15.40;99.90
18173;DHT22;9211;48.818;9.312;2022-11-02T14:42:09;15.20;99.90
18173;DHT22;9211;48.818;9.312;2022-11-02T14:45:15;15.20;99.90
18173;DHT22;9211;48.818;9.312;2022-11-02T14:47:55;15.20;99.90
18173;DHT22;9211;48.818;9.312;2022-11-02T14:50:24;15.10;99.90
18173;DHT22;9211;48.818;9.312;2022-11-02T14:52:58;15.10;99.90
18173;DHT22;9211;48.818;9.312;2022-11-02T14:55:28;15.10;99.90
18173;DHT22;9211;48.818;9.312;2022-11-02T14:58:00;15.00;99.90
18173;DHT22;9211;48.818;9.312;2022-11-02T15:00:33;15.00;99.90
18173;DHT22;9211;48.818;9.312;2022-11-02T15:03:03;14.90;99.90
18173;DHT22;9211;48.818;9.312;2022-11-02T15:05:33;14.90;99.90
18173;DHT22;9211;48.818;9.312;2022-11-02T15:08:03;14.90;99.90
18173;DHT22;9211;48.818;9.312;2022-11-02T15:10:42;14.90;99.90
18173;DHT22;9211;48.818;9.312;2022-11-02T15:13:34;14.80;99.90
18173;DHT22;9211;48.818;9.312;2022-11-02T15:16:16;14.80;99.90
18173;DHT22;9211;48.818;9.312;2022-11-02T15:18:46;14.70;99.90
18173;DHT22;9211;48.818;9.312;2022-11-02T15:21:24;14.70;99.90
18173;DHT22;9211;48.818;9.312;2022-11-02T15:24:05;14.60;99.90
18173;DHT22;9211;48.818;9.312;2022-11-02T15:26:41;14.60;99.90
18173;DHT22;9211;48.818;9.312;2022-11-02T15:29:15;14.50;99.90
18173;DHT22;9211;48.818;9.312;2022-11-02T15:31:55;14.50;99.90
18173;DHT22;9211;48.818;9.312;2022-11-02T15:34:29;14.40;99.90
18173;DHT22;9211;48.818;9.312;2022-11-02T15:36:58;14.30;99.90
18173;DHT22;9211;48.818;9.312;2022-11-02T15:39:25;14.20;99.90
18173;DHT22;9211;48.818;9.312;2022-11-02T15:42:01;14.20;99.90
18173;DHT22;9211;48.818;9.312;2022-11-02T15:44:40;14.20;99.90
18173;DHT22;9211;48.818;9.312;2022-11-02T15:47:17;14.00;99.90
18173;DHT22;9211;48.818;9.312;2022-11-02T15:50:11;13.90;99.90
18173;DHT22;9211;48.818;9.312;2022-11-02T15:52:56;13.80;99.90
18173;DHT22;9211;48.818;9.312;2022-11-02T15:55:34;13.80;99.90
18173;DHT22;9211;48.818;9.312;2022-11-02T15:58:12;13.70;99.90
18173;DHT22;9211;48.818;9.312;2022-11-02T16:00:43;13.40;99.90
18173;DHT22;9211;48.818;9.312;2022-11-02T16:03:29;13.40;99.90
18173;DHT22;9211;48.818;9.312;2022-11-02T16:05:56;13.30;99.90
18173;DHT22;9211;48.818;9.312;2022-11-02T16:08:30;13.30;99.90
18173;DHT22;9211;48.818;9.312;2022-11-02T16:11:03;13.30;99.90
18173;DHT22;9211;48.818;9.312;2022-11-02T16:13:35;13.20;99.90
18173;DHT22;9211;48.818;9.312;2022-11-02T16:16:05;13.00;99.90
18173;DHT22;9211;48.818;9.312;2022-11-02T16:18:35;13.00;99.90
18173;DHT22;9211;48.818;9.312;2022-11-02T16:21:05;12.90;99.90
18173;DHT22;9211;48.818;9.312;2022-11-02T16:23:34;12.80;99.90
18173;DHT22;9211;48.818;9.312;2022-11-02T16:26:04;12.70;99.90